Time;durP1;ratioP1;P1;durP2;ratioP2;P2;SDS_P1;SDS_P2;PMS_P1;PMS_P2;Temp;Humidity;BMP_temperature;BMP_pressure;BME280_temperature;BME280_humidity;BME280_pressure;Samples;Min_cycle;Max_cycle;Signal;HPM_P1;HPM_P2
2023/01/22 00:01:32;;;;;;;19.70;18.20;;;1.90;99.90;;;;;;4980003;28;20339;-45
2023/01/22 00:03:58;;;;;;;20.58;18.95;;;1.90;99.90;;;;;;4982208;28;20481;-50
2023/01/22 00:06:24;;;;;;;19.95;18.55;;;1.80;99.90;;;;;;4978092;28;20209;-48
2023/01/22 00:08:50;;;;;;;20.30;18.80;;;1.90;99.90;;;;;;4970221;28;20197;-45
2023/01/22 00:11:17;;;;;;;20.20;18.70;;;1.90;99.90;;;;;;4978399;28;20217;-45
2023/01/22 00:13:43;;;;;;;20.45;18.85;;;1.90;99.90;;;;;;4968725;28;20474;-45
2023/01/22 00:16:12;;;;;;;20.73;19.03;;;1.90;99.90;;;;;;4981260;28;20180;-45
2023/01/22 00:18:37;;;;;;;20.08;18.48;;;1.90;99.90;;;;;;4976159;28;20229;-45
2023/01/22 00:21:03;;;;;;;20.70;19.10;;;1.90;99.90;;;;;;4975515;28;20811;-49
2023/01/22 00:23:29;;;;;;;20.03;18.50;;;1.90;99.90;;;;;;4978113;28;20530;-44
2023/01/22 00:26:10;;;;;;;20.80;19.00;;;1.90;99.90;;;;;;4972595;28;20304;-46
2023/01/22 00:28:36;;;;;;;20.02;18.52;;;1.90;99.90;;;;;;4979667;28;20306;-49
2023/01/22 00:31:04;;;;;;;20.67;19.02;;;1.90;99.90;;;;;;4971925;28;20302;-47
2023/01/22 00:33:29;;;;;;;20.77;19.23;;;1.90;99.90;;;;;;4974227;28;20689;-45
2023/01/22 00:35:55;;;;;;;19.90;18.40;;;1.90;99.90;;;;;;4978650;28;20339;-49
2023/01/22 00:38:21;;;;;;;21.60;20.00;;;1.90;99.90;;;;;;4983060;28;20195;-45
2023/01/22 00:40:47;;;;;;;20.73;19.13;;;1.90;99.90;;;;;;4970392;28;20235;-45
2023/01/22 00:43:12;;;;;;;20.70;19.07;;;1.90;99.90;;;;;;4972080;28;20273;-46
2023/01/22 00:45:38;;;;;;;20.30;18.70;;;1.90;99.90;;;;;;4974796;28;20205;-44
2023/01/22 00:48:05;;;;;;;20.38;18.58;;;1.90;99.90;;;;;;4971599;28;20214;-45
2023/01/22 00:50:30;;;;;;;19.42;18.10;;;1.90;99.90;;;;;;4982315;28;20190;-48
2023/01/22 00:52:56;;;;;;;20.50;19.00;;;1.90;99.90;;;;;;4975354;28;20245;-48
2023/01/22 00:55:22;;;;;;;19.87;18.47;;;1.90;99.90;;;;;;4974736;28;20570;-47
2023/01/22 00:57:47;;;;;;;20.70;18.90;;;1.90;99.90;;;;;;4977047;28;20494;-46
2023/01/22 01:00:14;;;;;;;20.77;19.20;;;1.90;99.90;;;;;;4972727;28;20191;-47
2023/01/22 01:05:24;;;;;;;20.60;19.00;;;1.90;99.90;;;;;;4968790;28;20224;-48
2023/01/22 01:07:50;;;;;;;20.40;18.80;;;1.90;99.90;;;;;;4980841;28;20193;-45
2023/01/22 01:10:16;;;;;;;20.40;18.80;;;1.90;99.90;;;;;;4980131;28;20190;-44
2023/01/22 01:12:42;;;;;;;19.57;18.10;;;1.90;99.90;;;;;;4966735;28;20221;-46
2023/01/22 01:15:07;;;;;;;19.77;18.27;;;1.90;99.90;;;;;;4979670;28;20441;-48
2023/01/22 01:17:34;;;;;;;20.60;18.90;;;1.90;99.90;;;;;;4965210;28;20313;-46
2023/01/22 01:19:59;;;;;;;19.38;17.90;;;1.90;99.90;;;;;;4972650;28;21349;-45
2023/01/22 01:22:25;;;;;;;19.90;18.30;;;1.90;99.90;;;;;;4963809;28;20198;-45
2023/01/22 01:24:51;;;;;;;20.30;18.60;;;1.90;99.90;;;;;;4969920;28;20218;-46
2023/01/22 01:27:16;;;;;;;19.97;18.37;;;2.00;99.90;;;;;;4970087;28;20199;-47
2023/01/22 01:29:42;;;;;;;18.60;17.30;;;2.00;99.90;;;;;;4981989;28;21242;-48
2023/01/22 01:32:07;;;;;;;20.30;18.70;;;2.00;99.90;;;;;;4965054;28;20222;-47
2023/01/22 01:34:33;;;;;;;19.13;17.63;;;2.00;99.90;;;;;;4967291;28;20194;-45
2023/01/22 01:36:59;;;;;;;20.50;18.63;;;2.00;99.90;;;;;;4966807;28;20192;-46
2023/01/22 01:39:24;;;;;;;20.10;18.50;;;2.00;99.90;;;;;;4973623;28;20258;-47
2023/01/22 01:41:50;;;;;;;20.30;18.60;;;2.00;99.90;;;;;;4976931;28;20309;-46
2023/01/22 01:44:23;;;;;;;21.50;19.60;;;2.00;99.90;;;;;;4981898;28;20221;-44
2023/01/22 01:46:50;;;;;;;20.55;18.95;;;2.00;99.90;;;;;;4971662;28;20187;-47
2023/01/22 01:49:27;;;;;;;20.05;18.45;;;2.00;99.90;;;;;;4975835;28;20194;-46
2023/01/22 01:51:59;;;;;;;20.70;19.00;;;2.00;99.90;;;;;;4964599;28;20218;-47
2023/01/22 01:54:25;;;;;;;20.35;18.65;;;2.00;99.90;;;;;;4977136;28;20217;-45
2023/01/22 01:56:59;;;;;;;19.95;18.45;;;2.00;99.90;;;;;;4977236;28;20198;-44
2023/01/22 01:59:25;;;;;;;20.20;18.40;;;2.00;99.90;;;;;;4971200;28;20234;-45
2023/01/22 02:01:54;;;;;;;20.73;18.90;;;2.00;99.90;;;;;;4977838;28;20226;-45
2023/01/22 02:04:20;;;;;;;21.60;19.70;;;2.00;99.90;;;;;;4978366;28;20252;-43
2023/01/22 02:06:46;;;;;;;20.52;18.85;;;2.00;99.90;;;;;;4977333;28;20655;-45
2023/01/22 02:09:13;;;;;;;20.43;18.73;;;2.00;99.90;;;;;;4973454;28;20187;-48
2023/01/22 02:11:39;;;;;;;20.55;18.75;;;2.00;99.90;;;;;;4979003;28;20430;-48
2023/01/22 02:14:10;;;;;;;19.83;18.23;;;2.00;99.90;;;;;;4963029;28;20183;-45
2023/01/22 02:16:36;;;;;;;21.17;19.40;;;2.00;99.90;;;;;;4969036;28;20648;-47
2023/01/22 02:19:02;;;;;;;20.50;18.80;;;2.00;99.90;;;;;;4970703;28;20184;-45
2023/01/22 02:21:30;;;;;;;21.30;19.50;;;2.00;99.90;;;;;;4979026;28;20191;-46
2023/01/22 02:23:56;;;;;;;20.15;18.58;;;2.00;99.90;;;;;;4972467;28;20430;-44
2023/01/22 02:26:22;;;;;;;19.60;18.05;;;2.00;99.90;;;;;;4974962;28;20210;-50
2023/01/22 02:28:48;;;;;;;20.30;18.70;;;2.00;99.90;;;;;;4970464;28;20222;-48
2023/01/22 02:31:14;;;;;;;20.13;18.43;;;2.00;99.90;;;;;;4962131;28;20856;-46
2023/01/22 02:33:39;;;;;;;19.67;18.10;;;2.00;99.90;;;;;;4967459;28;20208;-49
2023/01/22 02:36:05;;;;;;;20.10;18.30;;;2.00;99.90;;;;;;4978695;28;20437;-47
2023/01/22 02:38:31;;;;;;;19.05;17.55;;;1.90;99.90;;;;;;4973141;28;20205;-49
2023/01/22 02:40:57;;;;;;;19.40;17.80;;;1.90;99.90;;;;;;4970011;28;20233;-47
2023/01/22 02:43:23;;;;;;;20.35;18.70;;;1.90;99.90;;;;;;4972249;28;20193;-47
2023/01/22 02:45:49;;;;;;;20.73;19.00;;;1.90;99.90;;;;;;4980128;28;20556;-46
2023/01/22 02:48:15;;;;;;;19.50;17.90;;;1.90;99.90;;;;;;4968975;28;20226;-47
2023/01/22 02:50:40;;;;;;;21.10;19.30;;;1.90;99.90;;;;;;4964757;28;20190;-46
2023/01/22 02:53:06;;;;;;;20.60;18.70;;;1.90;99.90;;;;;;4972328;28;20638;-45
2023/01/22 02:55:32;;;;;;;20.50;18.80;;;1.90;99.90;;;;;;4978203;28;21229;-47
2023/01/22 02:57:58;;;;;;;19.90;18.20;;;1.90;99.90;;;;;;4972727;28;20283;-45
2023/01/22 03:00:23;;;;;;;19.77;18.20;;;1.90;99.90;;;;;;4970347;28;20253;-47
2023/01/22 03:02:49;;;;;;;21.20;19.40;;;1.90;99.90;;;;;;4974775;28;20199;-43
2023/01/22 03:05:32;;;;;;;20.57;18.70;;;1.90;99.90;;;;;;4978839;28;20213;-46
2023/01/22 03:07:57;;;;;;;21.38;19.30;;;1.90;99.90;;;;;;4964174;28;20290;-43
2023/01/22 03:10:23;;;;;;;21.07;19.17;;;1.90;99.90;;;;;;4977818;28;20250;-48
2023/01/22 03:21:21;;;;;;;22.60;20.40;;;1.90;99.90;;;;;;4974574;28;20395;-46
2023/01/22 03:23:49;;;;;;;21.23;19.38;;;1.90;99.90;;;;;;4971945;28;20253;-46
2023/01/22 03:26:16;;;;;;;20.65;18.80;;;1.90;99.90;;;;;;4972954;28;20208;-47
2023/01/22 03:28:42;;;;;;;22.35;20.35;;;2.00;99.90;;;;;;4980270;28;20195;-47
2023/01/22 03:31:08;;;;;;;21.10;19.30;;;2.00;99.90;;;;;;4973283;28;20319;-47
2023/01/22 03:33:34;;;;;;;20.40;18.60;;;2.00;99.90;;;;;;4975528;28;20546;-48
2023/01/22 03:36:05;;;;;;;20.20;18.40;;;2.00;99.90;;;;;;4974437;28;20192;-45
2023/01/22 03:38:31;;;;;;;20.20;18.40;;;2.00;99.90;;;;;;4979625;28;20292;-46
2023/01/22 03:41:05;;;;;;;20.70;18.90;;;2.00;99.90;;;;;;4977311;28;20273;-45
2023/01/22 03:43:32;;;;;;;20.00;18.40;;;2.00;99.90;;;;;;4984037;28;20201;-49
2023/01/22 03:46:18;;;;;;;20.40;18.80;;;2.00;99.90;;;;;;4979655;28;20190;-47
2023/01/22 03:48:44;;;;;;;20.60;18.83;;;2.00;99.90;;;;;;4979361;28;21110;-45
2023/01/22 03:51:14;;;;;;;20.93;19.23;;;2.00;99.90;;;;;;4978160;28;20200;-47
2023/01/22 03:53:41;;;;;;;20.65;18.85;;;2.00;99.90;;;;;;4973587;28;20469;-44
2023/01/22 03:56:17;;;;;;;20.45;18.70;;;2.10;99.90;;;;;;4982045;28;20269;-44
2023/01/22 03:58:43;;;;;;;21.92;20.13;;;2.10;99.90;;;;;;4977325;28;20187;-46
2023/01/22 04:01:12;;;;;;;21.13;19.33;;;2.00;99.90;;;;;;4970460;28;20196;-46
2023/01/22 04:03:37;;;;;;;21.13;19.27;;;2.00;99.90;;;;;;4981978;28;20638;-47
2023/01/22 04:06:04;;;;;;;21.00;19.20;;;2.00;99.90;;;;;;4972583;28;20856;-46
2023/01/22 04:08:31;;;;;;;20.15;18.45;;;2.00;99.90;;;;;;4982959;28;20681;-48
2023/01/22 04:10:58;;;;;;;21.25;19.38;;;2.00;99.90;;;;;;4971471;28;20210;-45
2023/01/22 04:13:25;;;;;;;20.17;18.58;;;2.10;99.90;;;;;;4983017;28;20214;-44
2023/01/22 04:15:50;;;;;;;21.95;19.88;;;2.00;99.90;;;;;;4972180;28;20202;-44
2023/01/22 04:18:16;;;;;;;21.07;19.13;;;2.00;99.90;;;;;;4980757;28;20186;-49
2023/01/22 04:20:42;;;;;;;21.37;19.30;;;2.10;99.90;;;;;;4971861;28;20187;-44
2023/01/22 04:23:08;;;;;;;21.80;19.80;;;2.00;99.90;;;;;;4968266;28;20203;-44
2023/01/22 04:25:34;;;;;;;20.55;18.85;;;2.00;99.90;;;;;;4970891;28;20235;-45
2023/01/22 04:28:00;;;;;;;22.00;19.80;;;2.00;99.90;;;;;;4982421;28;20195;-46
2023/01/22 04:30:27;;;;;;;21.20;19.40;;;2.10;99.90;;;;;;4972183;28;20464;-47
2023/01/22 04:32:52;;;;;;;21.50;19.60;;;2.10;99.90;;;;;;4979794;28;20222;-46
2023/01/22 04:35:18;;;;;;;21.40;19.50;;;2.10;99.90;;;;;;4973289;28;20191;-45
2023/01/22 04:37:44;;;;;;;23.40;21.23;;;2.10;99.90;;;;;;4982327;28;20189;-44
2023/01/22 04:40:10;;;;;;;21.63;19.83;;;2.10;99.90;;;;;;4969148;28;20572;-45
2023/01/22 04:42:35;;;;;;;21.92;19.88;;;2.00;99.90;;;;;;4970777;28;20238;-49
2023/01/22 04:45:01;;;;;;;22.63;20.63;;;2.10;99.90;;;;;;4973299;28;20261;-45
2023/01/22 04:47:27;;;;;;;22.60;20.60;;;2.10;99.90;;;;;;4979516;28;20195;-45
2023/01/22 04:49:52;;;;;;;22.83;20.73;;;2.10;99.90;;;;;;4972892;28;20320;-46
2023/01/22 04:52:18;;;;;;;22.70;20.60;;;2.10;99.90;;;;;;4979261;28;20226;-46
2023/01/22 04:54:43;;;;;;;23.30;21.10;;;2.10;99.90;;;;;;4975890;28;21012;-47
2023/01/22 04:57:10;;;;;;;22.47;20.40;;;2.10;99.90;;;;;;4981206;28;20183;-46
2023/01/22 04:59:35;;;;;;;22.15;20.02;;;2.10;99.90;;;;;;4976781;28;20241;-44
2023/01/22 05:02:01;;;;;;;21.67;19.70;;;2.10;99.90;;;;;;4981825;28;20178;-44
2023/01/22 05:04:27;;;;;;;22.25;20.27;;;2.10;99.90;;;;;;4977778;28;20217;-46
2023/01/22 05:06:53;;;;;;;24.27;21.77;;;2.10;99.90;;;;;;4980336;28;20303;-45
2023/01/22 05:09:19;;;;;;;22.23;20.27;;;2.10;99.90;;;;;;4970163;28;20196;-46
2023/01/22 05:11:44;;;;;;;22.87;20.80;;;2.10;99.90;;;;;;4974501;28;20499;-44
2023/01/22 05:14:10;;;;;;;22.70;20.63;;;2.10;99.90;;;;;;4977077;28;20563;-47
2023/01/22 05:16:35;;;;;;;23.93;21.63;;;2.10;99.90;;;;;;4968856;28;20689;-44
2023/01/22 05:19:01;;;;;;;22.90;20.77;;;2.10;99.90;;;;;;4981741;28;20191;-44
2023/01/22 05:21:27;;;;;;;22.43;20.33;;;2.00;99.90;;;;;;4970317;28;20183;-44
2023/01/22 05:23:52;;;;;;;22.80;20.70;;;2.10;99.90;;;;;;4978652;28;20330;-45
2023/01/22 05:26:18;;;;;;;21.90;19.90;;;2.10;99.90;;;;;;4965733;28;20228;-48
2023/01/22 05:28:44;;;;;;;21.53;19.60;;;2.10;99.90;;;;;;4980930;28;20649;-45
2023/01/22 05:31:09;;;;;;;22.20;20.20;;;2.10;99.90;;;;;;4972933;28;20441;-46
2023/01/22 05:33:36;;;;;;;22.63;20.33;;;2.10;99.90;;;;;;4972522;28;20223;-44
2023/01/22 05:36:02;;;;;;;21.98;19.88;;;2.10;99.90;;;;;;4972447;28;20441;-46
2023/01/22 05:38:29;;;;;;;22.15;20.15;;;2.10;99.90;;;;;;4966908;28;20194;-44
2023/01/22 05:40:55;;;;;;;21.85;19.67;;;2.10;99.90;;;;;;4974450;28;20234;-46
2023/01/22 05:43:21;;;;;;;22.48;20.38;;;2.00;99.90;;;;;;4979046;28;20281;-44
2023/01/22 05:45:46;;;;;;;22.27;19.98;;;2.10;99.90;;;;;;4981105;28;20680;-47
2023/01/22 05:48:12;;;;;;;22.23;20.13;;;2.10;99.90;;;;;;4971323;28;20486;-45
2023/01/22 05:50:39;;;;;;;22.27;20.10;;;2.10;99.90;;;;;;4971974;28;20253;-45
2023/01/22 05:53:05;;;;;;;31.83;28.90;;;2.10;99.90;;;;;;4972348;28;20619;-45
2023/01/22 05:55:32;;;;;;;25.10;22.73;;;2.10;99.90;;;;;;4979905;28;20201;-45
2023/01/22 05:57:58;;;;;;;23.73;21.33;;;2.10;99.90;;;;;;4965853;28;20187;-44
2023/01/22 06:00:24;;;;;;;22.13;19.93;;;2.10;99.90;;;;;;4974016;28;20228;-44
2023/01/22 06:02:55;;;;;;;23.57;21.17;;;2.10;99.90;;;;;;4963505;28;20592;-45
2023/01/22 06:05:20;;;;;;;22.48;20.48;;;2.10;99.90;;;;;;4967179;28;20187;-48
2023/01/22 06:07:46;;;;;;;23.40;20.87;;;2.10;99.90;;;;;;4970664;28;20210;-50
2023/01/22 06:10:11;;;;;;;23.40;20.90;;;2.10;99.90;;;;;;4979701;28;20187;-43
2023/01/22 06:12:37;;;;;;;24.07;21.80;;;2.10;99.90;;;;;;4964279;28;20222;-46
2023/01/22 06:15:03;;;;;;;23.53;21.23;;;2.20;99.90;;;;;;4976500;28;20186;-44
2023/01/22 06:17:28;;;;;;;22.60;20.53;;;2.10;99.90;;;;;;4971871;28;20301;-43
2023/01/22 06:19:54;;;;;;;22.73;20.33;;;2.20;99.90;;;;;;4970962;28;20481;-44
2023/01/22 06:22:20;;;;;;;22.60;20.57;;;2.10;99.90;;;;;;4968940;28;20236;-44
2023/01/22 06:24:45;;;;;;;21.70;19.60;;;2.10;99.90;;;;;;4962867;28;20200;-47
2023/01/22 06:27:11;;;;;;;23.50;21.17;;;2.10;99.90;;;;;;4980099;28;20198;-46
2023/01/22 06:29:36;;;;;;;22.93;20.63;;;2.10;99.90;;;;;;4969649;28;20521;-44
2023/01/22 06:32:02;;;;;;;23.40;21.10;;;2.20;99.90;;;;;;4979989;28;20198;-43
2023/01/22 06:34:28;;;;;;;23.17;20.97;;;2.20;99.90;;;;;;4968734;28;20708;-45
2023/01/22 06:36:53;;;;;;;25.30;23.00;;;2.20;99.90;;;;;;4980299;28;20226;-46
2023/01/22 06:39:19;;;;;;;25.47;22.97;;;2.20;99.90;;;;;;4973331;28;20649;-44
2023/01/22 06:41:47;;;;;;;23.07;20.83;;;2.20;99.90;;;;;;4979941;28;20331;-46
2023/01/22 06:44:12;;;;;;;21.70;19.60;;;2.20;99.90;;;;;;4975091;28;20189;-47
2023/01/22 06:46:38;;;;;;;22.20;19.97;;;2.20;99.90;;;;;;4969198;28;20209;-45
2023/01/22 06:49:04;;;;;;;22.20;19.87;;;2.20;99.90;;;;;;4962147;28;20310;-45
2023/01/22 06:51:30;;;;;;;21.70;19.50;;;2.20;99.90;;;;;;4961462;28;20239;-46
2023/01/22 06:53:55;;;;;;;21.13;19.02;;;2.20;99.90;;;;;;4968674;28;20373;-44
2023/01/22 06:56:21;;;;;;;24.10;21.50;;;2.20;99.90;;;;;;4970505;28;20661;-45
2023/01/22 06:58:47;;;;;;;22.57;20.47;;;2.20;99.90;;;;;;4972894;28;20514;-48
2023/01/22 07:01:12;;;;;;;23.73;21.60;;;2.20;99.90;;;;;;4970226;28;20207;-44
2023/01/22 07:03:38;;;;;;;22.70;20.60;;;2.20;99.90;;;;;;4968816;28;20195;-48
2023/01/22 07:06:04;;;;;;;26.60;24.00;;;2.20;99.90;;;;;;4984095;28;20194;-44
2023/01/22 07:08:32;;;;;;;23.13;21.00;;;2.20;99.90;;;;;;4975775;28;20532;-47
2023/01/22 07:10:58;;;;;;;22.75;20.55;;;2.20;99.90;;;;;;4985354;28;20417;-45
2023/01/22 07:13:23;;;;;;;23.75;21.40;;;2.20;99.90;;;;;;4971820;28;20665;-47
2023/01/22 07:15:49;;;;;;;21.60;19.53;;;2.20;99.90;;;;;;4985941;28;20257;-45
2023/01/22 07:18:18;;;;;;;22.93;20.83;;;2.20;99.90;;;;;;4974109;28;20190;-49
2023/01/22 07:20:44;;;;;;;23.15;20.95;;;2.20;99.90;;;;;;4979148;28;20467;-47
2023/01/22 07:23:09;;;;;;;23.10;20.60;;;2.20;99.90;;;;;;4980118;28;20186;-46
2023/01/22 07:25:35;;;;;;;22.87;20.40;;;2.20;99.90;;;;;;4971125;28;20193;-44
2023/01/22 07:28:02;;;;;;;21.30;19.27;;;2.20;99.90;;;;;;4985952;28;20968;-47
2023/01/22 07:30:28;;;;;;;22.13;20.00;;;2.30;99.90;;;;;;4982950;28;20491;-46
2023/01/22 07:33:01;;;;;;;22.80;20.50;;;2.30;99.90;;;;;;4967442;28;20212;-44
2023/01/22 07:35:27;;;;;;;22.63;20.45;;;2.30;99.90;;;;;;4975014;28;20204;-48
2023/01/22 07:37:54;;;;;;;22.38;20.20;;;2.30;99.90;;;;;;4978538;28;20340;-45
2023/01/22 07:40:23;;;;;;;22.25;20.10;;;2.30;99.90;;;;;;4983396;28;20209;-46
2023/01/22 07:42:49;;;;;;;22.25;20.00;;;2.30;99.90;;;;;;4985442;28;20649;-47
2023/01/22 07:45:18;;;;;;;22.27;20.08;;;2.30;99.90;;;;;;4972210;28;20187;-44
2023/01/22 07:47:56;;;;;;;25.58;20.23;;;2.40;99.90;;;;;;4975319;28;20253;-50
2023/01/22 07:50:24;;;;;;;21.33;19.35;;;2.40;99.90;;;;;;4976464;28;20228;-47
2023/01/22 07:52:49;;;;;;;22.98;20.50;;;2.40;99.90;;;;;;4973673;28;20309;-49
2023/01/22 07:55:15;;;;;;;21.57;19.37;;;2.40;99.90;;;;;;4968814;28;20288;-46
2023/01/22 07:57:41;;;;;;;20.93;18.93;;;2.40;99.90;;;;;;4971399;28;20749;-45
2023/01/22 08:00:09;;;;;;;20.50;18.50;;;2.40;99.90;;;;;;4977825;28;20230;-48
2023/01/22 08:02:36;;;;;;;20.75;18.85;;;2.40;99.90;;;;;;4973448;28;20437;-44
2023/01/22 08:05:01;;;;;;;20.50;18.70;;;2.40;99.90;;;;;;4977694;28;20564;-47
2023/01/22 08:07:27;;;;;;;21.93;19.87;;;2.40;99.90;;;;;;4975107;28;20193;-45
2023/01/22 08:09:53;;;;;;;36.70;26.67;;;2.50;99.90;;;;;;4980859;28;20987;-44
2023/01/22 08:12:18;;;;;;;22.40;20.10;;;2.40;99.90;;;;;;4970124;28;20211;-47
2023/01/22 08:14:44;;;;;;;23.40;21.00;;;2.50;99.90;;;;;;4986128;28;20186;-45
2023/01/22 08:17:10;;;;;;;21.77;19.77;;;2.50;99.90;;;;;;4975653;28;20701;-47
2023/01/22 08:19:35;;;;;;;22.10;20.00;;;2.50;99.90;;;;;;4972900;28;20578;-47
2023/01/22 08:22:01;;;;;;;22.90;20.70;;;2.50;99.90;;;;;;4978046;28;20221;-46
2023/01/22 08:24:26;;;;;;;22.20;20.00;;;2.50;99.90;;;;;;4973012;28;20631;-45
2023/01/22 08:26:54;;;;;;;25.30;20.90;;;2.50;99.90;;;;;;4973806;28;20183;-46
2023/01/22 08:29:20;;;;;;;23.98;21.58;;;2.50;99.90;;;;;;4958601;28;20646;-48
2023/01/22 08:31:46;;;;;;;22.67;20.37;;;2.50;99.90;;;;;;4973758;28;20721;-49
2023/01/22 08:34:12;;;;;;;22.93;20.60;;;2.50;99.90;;;;;;4973126;28;20497;-44
2023/01/22 08:36:37;;;;;;;21.63;19.33;;;2.40;99.90;;;;;;4953905;28;20294;-46
2023/01/22 08:39:03;;;;;;;22.10;19.83;;;2.50;99.90;;;;;;4979391;28;20188;-50
2023/01/22 08:41:29;;;;;;;21.70;19.20;;;2.50;99.90;;;;;;4973771;28;20223;-48
2023/01/22 08:43:54;;;;;;;21.10;19.00;;;2.50;99.90;;;;;;4973486;28;20265;-48
2023/01/22 08:46:20;;;;;;;22.53;20.13;;;2.50;99.90;;;;;;4974378;28;20267;-47
2023/01/22 08:48:47;;;;;;;24.73;21.07;;;2.50;99.90;;;;;;4973993;28;20190;-47
2023/01/22 08:51:13;;;;;;;21.70;19.40;;;2.50;99.90;;;;;;4960564;28;20205;-48
2023/01/22 08:53:39;;;;;;;23.23;20.87;;;2.60;99.90;;;;;;4966649;28;20214;-50
2023/01/22 08:56:05;;;;;;;25.20;21.27;;;2.60;99.90;;;;;;4975878;28;20195;-46
2023/01/22 08:58:30;;;;;;;21.33;18.98;;;2.60;99.90;;;;;;4976246;28;20183;-47
2023/01/22 09:00:56;;;;;;;22.80;20.40;;;2.70;99.90;;;;;;4974983;28;20189;-47
2023/01/22 09:03:22;;;;;;;22.57;20.13;;;2.70;99.90;;;;;;4949560;28;20206;-46
2023/01/22 09:05:47;;;;;;;22.27;19.97;;;2.70;99.90;;;;;;4976129;28;20194;-47
2023/01/22 09:08:13;;;;;;;23.57;21.00;;;2.70;99.90;;;;;;4973450;28;20432;-45
2023/01/22 09:10:39;;;;;;;21.90;19.70;;;2.80;99.90;;;;;;4972266;28;20553;-46
2023/01/22 09:13:05;;;;;;;22.67;20.43;;;2.80;99.90;;;;;;4981874;28;20780;-44
2023/01/22 09:15:30;;;;;;;22.40;20.20;;;2.80;99.90;;;;;;4971790;28;20345;-44
2023/01/22 09:17:56;;;;;;;24.67;19.97;;;2.80;99.90;;;;;;4969636;28;20188;-44
2023/01/22 09:20:21;;;;;;;25.20;22.47;;;2.80;99.90;;;;;;4966684;28;20188;-45
2023/01/22 09:22:47;;;;;;;24.13;21.60;;;2.80;99.90;;;;;;4966790;28;20188;-44
2023/01/22 09:25:13;;;;;;;24.13;21.70;;;2.90;99.90;;;;;;4970973;28;20274;-45
2023/01/22 09:27:39;;;;;;;23.20;20.88;;;2.90;99.90;;;;;;4964297;28;20191;-45
2023/01/22 09:30:05;;;;;;;22.60;20.40;;;3.00;99.90;;;;;;4963551;28;20199;-46
2023/01/22 09:32:31;;;;;;;23.05;20.85;;;2.90;99.90;;;;;;4964349;28;20203;-48
2023/01/22 09:34:57;;;;;;;23.50;21.20;;;2.90;99.90;;;;;;4971868;28;20566;-44
2023/01/22 09:37:24;;;;;;;22.53;20.13;;;3.00;99.90;;;;;;4973772;28;20270;-46
2023/01/22 09:39:50;;;;;;;23.52;21.17;;;3.00;99.90;;;;;;4974117;28;20498;-46
2023/01/22 09:42:39;;;;;;;22.63;20.23;;;3.00;99.90;;;;;;4976231;28;20235;-47
2023/01/22 09:45:10;;;;;;;23.33;21.13;;;3.00;99.90;;;;;;4965662;28;20197;-43
2023/01/22 09:47:42;;;;;;;22.65;20.40;;;3.00;99.90;;;;;;4980039;28;20710;-45
2023/01/22 09:50:19;;;;;;;24.67;22.08;;;3.00;99.90;;;;;;4974263;28;20207;-43
2023/01/22 09:52:45;;;;;;;24.42;22.08;;;3.00;99.90;;;;;;4968033;28;20459;-44
2023/01/22 09:55:14;;;;;;;25.30;22.60;;;3.00;99.90;;;;;;4966768;28;20190;-44
2023/01/22 09:57:44;;;;;;;24.80;22.30;;;3.00;99.90;;;;;;4971651;28;20190;-46
2023/01/22 10:00:36;;;;;;;25.58;23.17;;;3.00;99.90;;;;;;4973344;28;20195;-47
2023/01/22 10:03:09;;;;;;;26.05;23.35;;;3.00;99.90;;;;;;4973888;28;20184;-46
2023/01/22 10:05:39;;;;;;;26.58;23.75;;;3.10;99.90;;;;;;4970429;28;20653;-44
2023/01/22 10:08:19;;;;;;;28.10;25.25;;;3.10;99.90;;;;;;4963698;28;20215;-44
2023/01/22 10:10:45;;;;;;;45.33;36.53;;;3.20;99.90;;;;;;4970723;28;20191;-46
2023/01/22 10:13:17;;;;;;;30.80;27.70;;;3.20;99.90;;;;;;4964083;28;20212;-49
2023/01/22 10:15:43;;;;;;;26.95;24.25;;;3.20;99.90;;;;;;4974164;28;20190;-45
2023/01/22 10:18:47;;;;;;;26.00;23.20;;;3.20;99.90;;;;;;4965597;28;20181;-46
2023/01/22 10:21:25;;;;;;;32.17;26.45;;;3.20;99.90;;;;;;4965289;28;20537;-47
2023/01/22 10:23:54;;;;;;;27.17;24.33;;;3.20;99.90;;;;;;4966472;28;20200;-44
2023/01/22 10:26:29;;;;;;;27.25;24.35;;;3.10;99.90;;;;;;4973426;28;20890;-45
2023/01/22 10:28:57;;;;;;;24.27;21.80;;;3.10;99.90;;;;;;4973940;28;20222;-43
2023/01/22 10:31:35;;;;;;;24.70;22.17;;;3.10;99.90;;;;;;4947689;28;20289;-46
2023/01/22 10:34:11;;;;;;;26.35;21.63;;;3.10;99.90;;;;;;4964041;28;20552;-44
2023/01/22 10:36:37;;;;;;;25.15;22.55;;;3.20;99.90;;;;;;4968704;28;20271;-49
2023/01/22 10:39:12;;;;;;;28.53;25.50;;;3.20;99.90;;;;;;4961595;28;20343;-46
2023/01/22 10:41:38;;;;;;;26.38;23.65;;;3.30;99.90;;;;;;4970822;28;20693;-46
2023/01/22 10:44:09;;;;;;;25.58;23.00;;;3.20;99.90;;;;;;4973212;28;20804;-49
2023/01/22 10:46:34;;;;;;;25.40;22.40;;;3.30;99.90;;;;;;4973702;28;20185;-47
2023/01/22 10:49:02;;;;;;;25.23;22.73;;;3.30;99.90;;;;;;4970273;28;20833;-48
2023/01/22 10:51:36;;;;;;;25.10;22.52;;;3.30;99.90;;;;;;4975594;28;20651;-47
2023/01/22 10:54:02;;;;;;;25.67;23.10;;;3.30;99.90;;;;;;4967781;28;20251;-47
2023/01/22 10:56:34;;;;;;;28.42;25.55;;;3.40;99.90;;;;;;4977162;28;20271;-48
2023/01/22 10:59:13;;;;;;;26.90;24.00;;;3.50;99.90;;;;;;4968909;28;20190;-46
2023/01/22 11:01:38;;;;;;;27.42;24.50;;;3.50;99.90;;;;;;4963138;28;20184;-44
2023/01/22 11:04:25;;;;;;;30.40;27.20;;;3.50;99.90;;;;;;4971197;28;20223;-47
2023/01/22 11:07:25;;;;;;;25.13;22.67;;;3.60;99.90;;;;;;4963762;28;20320;-45
2023/01/22 11:10:16;;;;;;;26.15;23.60;;;3.60;99.90;;;;;;4962578;28;20536;-44
2023/01/22 11:12:45;;;;;;;26.73;24.02;;;3.60;99.90;;;;;;4962790;28;20210;-45
2023/01/22 11:15:43;;;;;;;25.73;23.13;;;3.60;99.90;;;;;;4961886;28;20186;-47
2023/01/22 11:18:29;;;;;;;25.05;22.35;;;3.70;99.90;;;;;;4962413;28;20270;-46
2023/01/22 11:20:57;;;;;;;25.13;22.80;;;3.70;99.90;;;;;;4968591;28;20783;-45
2023/01/22 11:23:42;;;;;;;25.60;23.13;;;3.70;99.90;;;;;;4963222;28;20912;-46
2023/01/22 11:26:32;;;;;;;24.65;22.35;;;3.70;99.90;;;;;;4961263;28;20187;-46
2023/01/22 11:29:36;;;;;;;24.67;22.27;;;3.60;99.90;;;;;;4964327;28;20181;-42
2023/01/22 11:32:19;;;;;;;26.08;23.48;;;3.70;99.90;;;;;;4965971;28;20186;-46
2023/01/22 11:35:04;;;;;;;24.80;22.65;;;3.70;99.90;;;;;;4971989;28;20695;-46
2023/01/22 11:37:47;;;;;;;24.58;22.17;;;3.70;99.90;;;;;;4964638;28;20198;-47
2023/01/22 11:40:16;;;;;;;24.52;22.02;;;3.70;99.90;;;;;;4976811;28;20181;-44
2023/01/22 11:43:04;;;;;;;27.42;25.02;;;3.70;99.90;;;;;;4968632;28;20233;-42
2023/01/22 11:45:36;;;;;;;25.15;22.55;;;3.70;99.90;;;;;;4961081;28;20209;-44
2023/01/22 11:48:17;;;;;;;29.15;26.52;;;3.70;99.90;;;;;;4964629;28;20191;-45
2023/01/22 11:50:58;;;;;;;24.25;21.77;;;3.70;99.90;;;;;;4978243;28;20642;-43
2023/01/22 11:53:44;;;;;;;23.40;21.30;;;3.70;99.90;;;;;;4977201;28;20216;-44
2023/01/22 11:56:38;;;;;;;23.75;21.48;;;3.60;99.90;;;;;;4982980;28;20184;-45
2023/01/22 11:59:38;;;;;;;24.73;22.33;;;3.60;99.90;;;;;;4970162;28;20821;-44
2023/01/22 12:02:13;;;;;;;23.92;21.45;;;3.60;99.90;;;;;;4972642;28;20201;-43
2023/01/22 12:04:54;;;;;;;25.27;22.90;;;3.50;99.90;;;;;;4966750;28;20380;-44
2023/01/22 12:07:29;;;;;;;27.30;24.58;;;3.50;99.90;;;;;;4977081;28;20238;-43
2023/01/22 12:10:00;;;;;;;24.20;21.83;;;3.40;99.90;;;;;;4975441;28;20394;-44
2023/01/22 12:12:42;;;;;;;26.48;23.70;;;3.40;99.90;;;;;;4968411;28;20262;-43
2023/01/22 12:15:29;;;;;;;27.08;24.27;;;3.30;99.90;;;;;;4973937;28;20240;-46
2023/01/22 12:18:12;;;;;;;27.58;24.77;;;3.30;99.90;;;;;;4976403;28;20195;-44
2023/01/22 12:21:01;;;;;;;26.48;23.77;;;3.20;99.90;;;;;;4973765;28;20180;-43
2023/01/22 12:23:46;;;;;;;26.05;23.27;;;3.20;99.90;;;;;;4966777;28;20198;-41
2023/01/22 12:26:26;;;;;;;25.83;23.33;;;3.20;99.90;;;;;;4976846;28;20187;-43
2023/01/22 12:29:00;;;;;;;25.25;22.70;;;3.10;99.90;;;;;;4965917;28;20191;-45
2023/01/22 12:31:37;;;;;;;25.15;22.75;;;3.10;99.90;;;;;;4967831;28;20187;-43
2023/01/22 12:34:17;;;;;;;25.50;22.80;;;3.10;99.90;;;;;;4970850;28;20228;-43
2023/01/22 12:36:44;;;;;;;27.63;24.80;;;3.10;99.90;;;;;;4978231;28;20189;-44
2023/01/22 12:39:29;;;;;;;27.27;24.48;;;3.20;99.90;;;;;;4975179;28;20183;-45
2023/01/22 12:42:03;;;;;;;26.15;23.50;;;3.20;99.90;;;;;;4964579;28;20231;-45
2023/01/22 12:44:46;;;;;;;26.52;23.67;;;3.10;99.90;;;;;;4967882;28;20231;-47
2023/01/22 12:47:40;;;;;;;28.63;25.63;;;3.10;99.90;;;;;;4969255;28;20190;-42
2023/01/22 12:50:19;;;;;;;28.17;25.38;;;3.10;99.90;;;;;;4964233;28;20217;-44
2023/01/22 12:52:58;;;;;;;28.85;25.75;;;3.10;99.90;;;;;;4979163;28;20715;-45
2023/01/22 12:55:42;;;;;;;30.63;27.52;;;3.10;99.90;;;;;;4975186;28;20263;-43
2023/01/22 12:58:22;;;;;;;28.08;25.30;;;3.10;99.90;;;;;;4974215;28;20235;-43